sensor_id;sensor_type;location;lat;lon;timestamp;P1;durP1;ratioP1;P2;durP2;ratioP2
62929;SDS011;49036;42.782;23.108;2023-01-29T00:00:06;17.02;;;8.95;;
62929;SDS011;49036;42.782;23.108;2023-01-29T00:02:37;22.85;;;8.30;;
62929;SDS011;49036;42.782;23.108;2023-01-29T00:05:03;16.52;;;8.10;;
62929;SDS011;49036;42.782;23.108;2023-01-29T00:07:30;14.45;;;8.48;;
62929;SDS011;49036;42.782;23.108;2023-01-29T00:09:55;18.42;;;8.93;;
62929;SDS011;49036;42.782;23.108;2023-01-29T00:12:21;12.82;;;7.53;;
62929;SDS011;49036;42.782;23.108;2023-01-29T00:14:46;15.50;;;8.43;;
62929;SDS011;49036;42.782;23.108;2023-01-29T00:17:12;20.42;;;8.43;;
62929;SDS011;49036;42.782;23.108;2023-01-29T00:19:37;12.40;;;5.68;;
62929;SDS011;49036;42.782;23.108;2023-01-29T00:22:03;15.70;;;8.50;;
62929;SDS011;49036;42.782;23.108;2023-01-29T00:24:28;14.07;;;7.78;;
62929;SDS011;49036;42.782;23.108;2023-01-29T00:26:54;15.15;;;9.43;;
62929;SDS011;49036;42.782;23.108;2023-01-29T00:29:19;15.85;;;8.95;;
62929;SDS011;49036;42.782;23.108;2023-01-29T00:31:46;11.80;;;7.32;;
62929;SDS011;49036;42.782;23.108;2023-01-29T00:34:11;11.98;;;6.63;;
62929;SDS011;49036;42.782;23.108;2023-01-29T00:36:37;19.23;;;7.82;;
62929;SDS011;49036;42.782;23.108;2023-01-29T00:39:02;12.55;;;6.20;;
62929;SDS011;49036;42.782;23.108;2023-01-29T00:41:34;19.20;;;8.00;;
62929;SDS011;49036;42.782;23.108;2023-01-29T00:44:19;13.57;;;6.13;;
62929;SDS011;49036;42.782;23.108;2023-01-29T00:47:03;13.00;;;8.05;;
62929;SDS011;49036;42.782;23.108;2023-01-29T00:49:49;14.85;;;6.97;;
62929;SDS011;49036;42.782;23.108;2023-01-29T00:52:15;12.18;;;7.10;;
62929;SDS011;49036;42.782;23.108;2023-01-29T00:54:53;14.70;;;8.13;;
62929;SDS011;49036;42.782;23.108;2023-01-29T00:57:23;11.27;;;6.47;;
62929;SDS011;49036;42.782;23.108;2023-01-29T00:59:50;10.80;;;6.35;;
62929;SDS011;49036;42.782;23.108;2023-01-29T01:02:16;18.83;;;7.72;;
62929;SDS011;49036;42.782;23.108;2023-01-29T01:07:27;9.93;;;5.50;;
62929;SDS011;49036;42.782;23.108;2023-01-29T01:09:53;21.17;;;9.88;;
62929;SDS011;49036;42.782;23.108;2023-01-29T01:12:37;12.85;;;7.03;;
62929;SDS011;49036;42.782;23.108;2023-01-29T01:15:03;13.25;;;6.28;;
62929;SDS011;49036;42.782;23.108;2023-01-29T01:17:29;16.83;;;6.88;;
62929;SDS011;49036;42.782;23.108;2023-01-29T01:19:55;11.13;;;5.95;;
62929;SDS011;49036;42.782;23.108;2023-01-29T01:22:20;10.60;;;6.38;;
62929;SDS011;49036;42.782;23.108;2023-01-29T01:24:46;7.45;;;3.78;;
62929;SDS011;49036;42.782;23.108;2023-01-29T01:27:11;14.68;;;7.72;;
62929;SDS011;49036;42.782;23.108;2023-01-29T01:29:37;11.73;;;7.45;;
62929;SDS011;49036;42.782;23.108;2023-01-29T01:32:04;10.95;;;5.97;;
62929;SDS011;49036;42.782;23.108;2023-01-29T01:34:30;13.60;;;6.57;;
62929;SDS011;49036;42.782;23.108;2023-01-29T01:36:55;15.13;;;8.55;;
62929;SDS011;49036;42.782;23.108;2023-01-29T01:39:22;12.00;;;7.43;;
62929;SDS011;49036;42.782;23.108;2023-01-29T01:47:16;10.05;;;5.95;;
62929;SDS011;49036;42.782;23.108;2023-01-29T01:49:51;8.70;;;4.90;;
62929;SDS011;49036;42.782;23.108;2023-01-29T01:52:18;11.90;;;6.13;;
62929;SDS011;49036;42.782;23.108;2023-01-29T01:57:12;12.77;;;6.57;;
62929;SDS011;49036;42.782;23.108;2023-01-29T01:59:51;10.13;;;6.03;;
62929;SDS011;49036;42.782;23.108;2023-01-29T02:02:21;11.77;;;7.68;;
62929;SDS011;49036;42.782;23.108;2023-01-29T02:05:05;9.93;;;6.80;;
62929;SDS011;49036;42.782;23.108;2023-01-29T02:07:51;8.65;;;4.68;;
62929;SDS011;49036;42.782;23.108;2023-01-29T02:10:45;12.85;;;5.97;;
62929;SDS011;49036;42.782;23.108;2023-01-29T02:13:12;12.30;;;5.95;;
62929;SDS011;49036;42.782;23.108;2023-01-29T02:15:43;8.98;;;5.00;;
62929;SDS011;49036;42.782;23.108;2023-01-29T02:18:13;10.48;;;5.43;;
62929;SDS011;49036;42.782;23.108;2023-01-29T02:20:43;13.38;;;5.53;;
62929;SDS011;49036;42.782;23.108;2023-01-29T02:23:37;7.43;;;5.03;;
62929;SDS011;49036;42.782;23.108;2023-01-29T02:29:41;9.20;;;5.65;;
62929;SDS011;49036;42.782;23.108;2023-01-29T02:35:22;11.13;;;6.07;;
62929;SDS011;49036;42.782;23.108;2023-01-29T02:38:10;10.00;;;5.93;;
62929;SDS011;49036;42.782;23.108;2023-01-29T02:46:15;13.30;;;5.55;;
62929;SDS011;49036;42.782;23.108;2023-01-29T02:51:23;11.95;;;6.25;;
62929;SDS011;49036;42.782;23.108;2023-01-29T02:59:24;13.70;;;6.57;;
62929;SDS011;49036;42.782;23.108;2023-01-29T03:01:56;9.80;;;6.05;;
62929;SDS011;49036;42.782;23.108;2023-01-29T03:04:28;9.93;;;4.55;;
62929;SDS011;49036;42.782;23.108;2023-01-29T03:06:58;7.47;;;5.07;;
62929;SDS011;49036;42.782;23.108;2023-01-29T03:09:33;9.27;;;5.95;;
62929;SDS011;49036;42.782;23.108;2023-01-29T03:12:09;6.90;;;5.22;;
62929;SDS011;49036;42.782;23.108;2023-01-29T03:14:52;7.40;;;4.93;;
62929;SDS011;49036;42.782;23.108;2023-01-29T03:17:46;7.95;;;5.20;;
62929;SDS011;49036;42.782;23.108;2023-01-29T03:20:17;8.32;;;5.43;;
62929;SDS011;49036;42.782;23.108;2023-01-29T03:25:17;6.78;;;4.47;;
62929;SDS011;49036;42.782;23.108;2023-01-29T03:28:04;6.45;;;5.47;;
62929;SDS011;49036;42.782;23.108;2023-01-29T03:30:53;11.95;;;5.82;;
62929;SDS011;49036;42.782;23.108;2023-01-29T03:33:47;10.68;;;6.63;;
62929;SDS011;49036;42.782;23.108;2023-01-29T03:36:25;6.57;;;3.05;;
62929;SDS011;49036;42.782;23.108;2023-01-29T03:39:19;5.93;;;4.82;;
62929;SDS011;49036;42.782;23.108;2023-01-29T03:42:03;6.25;;;3.90;;
62929;SDS011;49036;42.782;23.108;2023-01-29T03:44:57;10.40;;;4.88;;
62929;SDS011;49036;42.782;23.108;2023-01-29T03:47:48;10.18;;;5.68;;
62929;SDS011;49036;42.782;23.108;2023-01-29T03:50:33;6.28;;;5.43;;
62929;SDS011;49036;42.782;23.108;2023-01-29T03:55:51;9.32;;;6.25;;
62929;SDS011;49036;42.782;23.108;2023-01-29T04:06:29;7.47;;;5.15;;
62929;SDS011;49036;42.782;23.108;2023-01-29T04:09:14;7.68;;;3.53;;
62929;SDS011;49036;42.782;23.108;2023-01-29T04:11:51;10.27;;;5.85;;
62929;SDS011;49036;42.782;23.108;2023-01-29T04:14:22;7.22;;;5.32;;
62929;SDS011;49036;42.782;23.108;2023-01-29T04:16:50;9.05;;;3.97;;
62929;SDS011;49036;42.782;23.108;2023-01-29T04:19:18;8.20;;;4.80;;
62929;SDS011;49036;42.782;23.108;2023-01-29T04:21:44;8.00;;;5.00;;
62929;SDS011;49036;42.782;23.108;2023-01-29T04:24:13;7.93;;;4.68;;
62929;SDS011;49036;42.782;23.108;2023-01-29T04:43:15;3.85;;;3.15;;
62929;SDS011;49036;42.782;23.108;2023-01-29T04:48:54;5.70;;;3.35;;
62929;SDS011;49036;42.782;23.108;2023-01-29T04:56:45;7.50;;;4.05;;
62929;SDS011;49036;42.782;23.108;2023-01-29T04:59:22;9.13;;;4.05;;
62929;SDS011;49036;42.782;23.108;2023-01-29T05:02:00;7.50;;;5.13;;
62929;SDS011;49036;42.782;23.108;2023-01-29T05:04:26;7.20;;;5.05;;
62929;SDS011;49036;42.782;23.108;2023-01-29T05:06:56;6.00;;;4.20;;
62929;SDS011;49036;42.782;23.108;2023-01-29T05:09:25;6.05;;;4.72;;
62929;SDS011;49036;42.782;23.108;2023-01-29T05:11:50;9.32;;;5.55;;
62929;SDS011;49036;42.782;23.108;2023-01-29T05:14:17;12.07;;;5.97;;
62929;SDS011;49036;42.782;23.108;2023-01-29T05:16:46;9.65;;;4.35;;
62929;SDS011;49036;42.782;23.108;2023-01-29T05:19:15;8.45;;;5.30;;
62929;SDS011;49036;42.782;23.108;2023-01-29T05:21:45;11.32;;;6.70;;
62929;SDS011;49036;42.782;23.108;2023-01-29T05:24:17;7.93;;;5.03;;
62929;SDS011;49036;42.782;23.108;2023-01-29T05:26:45;7.25;;;4.75;;
62929;SDS011;49036;42.782;23.108;2023-01-29T05:29:31;8.57;;;3.80;;
62929;SDS011;49036;42.782;23.108;2023-01-29T05:31:57;7.82;;;4.68;;
62929;SDS011;49036;42.782;23.108;2023-01-29T05:34:22;9.73;;;4.93;;
62929;SDS011;49036;42.782;23.108;2023-01-29T05:36:48;8.50;;;4.55;;
62929;SDS011;49036;42.782;23.108;2023-01-29T05:39:14;11.20;;;6.07;;
62929;SDS011;49036;42.782;23.108;2023-01-29T05:41:39;8.60;;;5.75;;
62929;SDS011;49036;42.782;23.108;2023-01-29T05:44:05;8.90;;;4.95;;
62929;SDS011;49036;42.782;23.108;2023-01-29T05:46:30;9.07;;;5.55;;
62929;SDS011;49036;42.782;23.108;2023-01-29T05:48:56;7.55;;;4.05;;
62929;SDS011;49036;42.782;23.108;2023-01-29T05:51:21;8.60;;;5.07;;
62929;SDS011;49036;42.782;23.108;2023-01-29T05:53:47;11.10;;;6.07;;
62929;SDS011;49036;42.782;23.108;2023-01-29T05:56:13;12.63;;;6.10;;
62929;SDS011;49036;42.782;23.108;2023-01-29T05:58:38;7.78;;;5.07;;
62929;SDS011;49036;42.782;23.108;2023-01-29T06:01:10;14.50;;;7.63;;
62929;SDS011;49036;42.782;23.108;2023-01-29T06:03:37;8.80;;;4.13;;
62929;SDS011;49036;42.782;23.108;2023-01-29T06:06:03;10.68;;;6.10;;
62929;SDS011;49036;42.782;23.108;2023-01-29T06:08:28;7.28;;;5.55;;
62929;SDS011;49036;42.782;23.108;2023-01-29T06:10:54;10.15;;;5.72;;
62929;SDS011;49036;42.782;23.108;2023-01-29T06:13:19;7.20;;;5.25;;
62929;SDS011;49036;42.782;23.108;2023-01-29T06:15:45;9.45;;;6.13;;
62929;SDS011;49036;42.782;23.108;2023-01-29T06:18:10;12.45;;;5.93;;
62929;SDS011;49036;42.782;23.108;2023-01-29T06:20:36;6.78;;;4.80;;
62929;SDS011;49036;42.782;23.108;2023-01-29T06:23:01;9.98;;;5.13;;
62929;SDS011;49036;42.782;23.108;2023-01-29T06:25:27;13.18;;;5.60;;
62929;SDS011;49036;42.782;23.108;2023-01-29T06:27:52;9.32;;;4.72;;
62929;SDS011;49036;42.782;23.108;2023-01-29T06:30:18;10.90;;;6.35;;
62929;SDS011;49036;42.782;23.108;2023-01-29T06:32:43;11.15;;;5.78;;
62929;SDS011;49036;42.782;23.108;2023-01-29T06:35:09;8.30;;;4.50;;
62929;SDS011;49036;42.782;23.108;2023-01-29T06:37:35;8.75;;;5.50;;
62929;SDS011;49036;42.782;23.108;2023-01-29T06:40:01;10.80;;;6.03;;
62929;SDS011;49036;42.782;23.108;2023-01-29T06:42:26;9.52;;;6.30;;
62929;SDS011;49036;42.782;23.108;2023-01-29T06:44:55;13.38;;;5.65;;
62929;SDS011;49036;42.782;23.108;2023-01-29T06:47:21;8.50;;;5.32;;
62929;SDS011;49036;42.782;23.108;2023-01-29T06:49:48;10.55;;;7.18;;
62929;SDS011;49036;42.782;23.108;2023-01-29T06:52:14;10.70;;;5.95;;
62929;SDS011;49036;42.782;23.108;2023-01-29T06:54:39;13.90;;;6.95;;
62929;SDS011;49036;42.782;23.108;2023-01-29T06:57:05;5.00;;;4.10;;
62929;SDS011;49036;42.782;23.108;2023-01-29T06:59:30;13.25;;;6.40;;
62929;SDS011;49036;42.782;23.108;2023-01-29T07:01:56;11.25;;;6.93;;
62929;SDS011;49036;42.782;23.108;2023-01-29T07:04:21;11.07;;;6.15;;
62929;SDS011;49036;42.782;23.108;2023-01-29T07:06:47;12.23;;;6.25;;
62929;SDS011;49036;42.782;23.108;2023-01-29T07:09:12;9.60;;;6.43;;
62929;SDS011;49036;42.782;23.108;2023-01-29T07:11:39;10.32;;;5.40;;
62929;SDS011;49036;42.782;23.108;2023-01-29T07:14:05;6.32;;;3.78;;
62929;SDS011;49036;42.782;23.108;2023-01-29T07:16:31;8.75;;;6.10;;
62929;SDS011;49036;42.782;23.108;2023-01-29T07:18:57;8.13;;;5.00;;
62929;SDS011;49036;42.782;23.108;2023-01-29T07:21:22;10.00;;;5.35;;
62929;SDS011;49036;42.782;23.108;2023-01-29T07:23:48;6.85;;;5.07;;
62929;SDS011;49036;42.782;23.108;2023-01-29T07:26:14;7.88;;;5.40;;
62929;SDS011;49036;42.782;23.108;2023-01-29T07:28:39;7.82;;;3.08;;
62929;SDS011;49036;42.782;23.108;2023-01-29T07:31:05;8.07;;;5.13;;
62929;SDS011;49036;42.782;23.108;2023-01-29T07:33:32;7.45;;;5.40;;
62929;SDS011;49036;42.782;23.108;2023-01-29T07:35:57;6.90;;;4.47;;
62929;SDS011;49036;42.782;23.108;2023-01-29T07:38:23;10.00;;;6.25;;
62929;SDS011;49036;42.782;23.108;2023-01-29T07:40:50;10.40;;;6.03;;
62929;SDS011;49036;42.782;23.108;2023-01-29T07:43:16;13.05;;;6.72;;
62929;SDS011;49036;42.782;23.108;2023-01-29T07:45:42;7.20;;;5.38;;
62929;SDS011;49036;42.782;23.108;2023-01-29T07:48:08;9.82;;;5.57;;
62929;SDS011;49036;42.782;23.108;2023-01-29T07:50:35;9.68;;;5.43;;
62929;SDS011;49036;42.782;23.108;2023-01-29T07:53:02;10.07;;;5.85;;
62929;SDS011;49036;42.782;23.108;2023-01-29T07:55:28;9.82;;;6.07;;
62929;SDS011;49036;42.782;23.108;2023-01-29T07:57:57;10.38;;;5.70;;
62929;SDS011;49036;42.782;23.108;2023-01-29T08:00:24;7.65;;;5.20;;
62929;SDS011;49036;42.782;23.108;2023-01-29T08:02:50;9.52;;;5.72;;
62929;SDS011;49036;42.782;23.108;2023-01-29T08:05:16;13.25;;;6.72;;
62929;SDS011;49036;42.782;23.108;2023-01-29T08:07:42;7.78;;;6.00;;
62929;SDS011;49036;42.782;23.108;2023-01-29T08:10:07;10.27;;;5.35;;
62929;SDS011;49036;42.782;23.108;2023-01-29T08:12:33;10.48;;;6.85;;
62929;SDS011;49036;42.782;23.108;2023-01-29T08:14:59;12.88;;;6.07;;
62929;SDS011;49036;42.782;23.108;2023-01-29T08:17:24;11.48;;;5.97;;
62929;SDS011;49036;42.782;23.108;2023-01-29T08:19:50;11.32;;;6.07;;
62929;SDS011;49036;42.782;23.108;2023-01-29T08:22:15;11.98;;;5.55;;
62929;SDS011;49036;42.782;23.108;2023-01-29T08:24:41;10.25;;;5.43;;
62929;SDS011;49036;42.782;23.108;2023-01-29T08:27:07;11.10;;;5.47;;
62929;SDS011;49036;42.782;23.108;2023-01-29T08:29:32;13.93;;;8.57;;
62929;SDS011;49036;42.782;23.108;2023-01-29T08:31:58;6.25;;;4.28;;
62929;SDS011;49036;42.782;23.108;2023-01-29T08:34:24;15.30;;;6.10;;
62929;SDS011;49036;42.782;23.108;2023-01-29T08:36:50;10.00;;;6.63;;
62929;SDS011;49036;42.782;23.108;2023-01-29T08:41:42;10.85;;;6.25;;
62929;SDS011;49036;42.782;23.108;2023-01-29T08:44:08;12.48;;;6.00;;
62929;SDS011;49036;42.782;23.108;2023-01-29T08:46:33;11.95;;;7.38;;
62929;SDS011;49036;42.782;23.108;2023-01-29T08:48:59;14.65;;;6.38;;
62929;SDS011;49036;42.782;23.108;2023-01-29T08:51:24;11.55;;;6.60;;
62929;SDS011;49036;42.782;23.108;2023-01-29T08:53:50;13.52;;;6.82;;
62929;SDS011;49036;42.782;23.108;2023-01-29T08:56:16;18.80;;;7.75;;
62929;SDS011;49036;42.782;23.108;2023-01-29T08:58:42;11.60;;;5.85;;
62929;SDS011;49036;42.782;23.108;2023-01-29T09:01:09;10.05;;;5.50;;
62929;SDS011;49036;42.782;23.108;2023-01-29T09:03:36;13.88;;;7.55;;
62929;SDS011;49036;42.782;23.108;2023-01-29T09:06:05;13.98;;;8.80;;
62929;SDS011;49036;42.782;23.108;2023-01-29T09:08:31;18.20;;;8.85;;
62929;SDS011;49036;42.782;23.108;2023-01-29T09:10:59;11.98;;;6.95;;
62929;SDS011;49036;42.782;23.108;2023-01-29T09:13:25;12.50;;;6.90;;
62929;SDS011;49036;42.782;23.108;2023-01-29T09:15:51;13.48;;;7.28;;
62929;SDS011;49036;42.782;23.108;2023-01-29T09:18:16;11.18;;;7.88;;
62929;SDS011;49036;42.782;23.108;2023-01-29T09:20:42;11.85;;;6.72;;
62929;SDS011;49036;42.782;23.108;2023-01-29T09:23:08;10.30;;;7.70;;
62929;SDS011;49036;42.782;23.108;2023-01-29T09:25:37;11.85;;;7.07;;
62929;SDS011;49036;42.782;23.108;2023-01-29T09:28:03;13.55;;;7.53;;
62929;SDS011;49036;42.782;23.108;2023-01-29T09:30:28;9.30;;;4.65;;
62929;SDS011;49036;42.782;23.108;2023-01-29T09:32:54;14.45;;;8.63;;
62929;SDS011;49036;42.782;23.108;2023-01-29T09:35:20;11.05;;;6.82;;
62929;SDS011;49036;42.782;23.108;2023-01-29T09:37:47;9.98;;;6.40;;
62929;SDS011;49036;42.782;23.108;2023-01-29T09:42:53;10.65;;;6.78;;
62929;SDS011;49036;42.782;23.108;2023-01-29T09:45:24;11.30;;;6.95;;
62929;SDS011;49036;42.782;23.108;2023-01-29T09:47:52;17.95;;;8.27;;
62929;SDS011;49036;42.782;23.108;2023-01-29T09:56:08;11.68;;;5.68;;
62929;SDS011;49036;42.782;23.108;2023-01-29T09:58:38;16.95;;;8.13;;
62929;SDS011;49036;42.782;23.108;2023-01-29T10:01:23;19.15;;;9.63;;
62929;SDS011;49036;42.782;23.108;2023-01-29T10:04:04;20.27;;;10.52;;
62929;SDS011;49036;42.782;23.108;2023-01-29T10:06:53;20.55;;;10.80;;
62929;SDS011;49036;42.782;23.108;2023-01-29T10:09:27;27.05;;;9.07;;
62929;SDS011;49036;42.782;23.108;2023-01-29T10:12:04;17.85;;;8.88;;
62929;SDS011;49036;42.782;23.108;2023-01-29T10:23:21;16.33;;;8.32;;
62929;SDS011;49036;42.782;23.108;2023-01-29T10:25:52;19.52;;;10.10;;
62929;SDS011;49036;42.782;23.108;2023-01-29T10:30:48;22.40;;;9.88;;
62929;SDS011;49036;42.782;23.108;2023-01-29T10:33:21;16.40;;;9.48;;
62929;SDS011;49036;42.782;23.108;2023-01-29T10:35:54;18.33;;;8.95;;
62929;SDS011;49036;42.782;23.108;2023-01-29T10:38:43;15.23;;;8.20;;
62929;SDS011;49036;42.782;23.108;2023-01-29T10:41:55;15.23;;;9.55;;
62929;SDS011;49036;42.782;23.108;2023-01-29T11:00:43;16.38;;;6.35;;
62929;SDS011;49036;42.782;23.108;2023-01-29T11:06:09;15.65;;;7.78;;
62929;SDS011;49036;42.782;23.108;2023-01-29T11:08:45;15.88;;;7.60;;
62929;SDS011;49036;42.782;23.108;2023-01-29T11:11:17;19.02;;;9.50;;
62929;SDS011;49036;42.782;23.108;2023-01-29T11:14:05;15.15;;;8.32;;
62929;SDS011;49036;42.782;23.108;2023-01-29T11:16:40;14.73;;;7.57;;
62929;SDS011;49036;42.782;23.108;2023-01-29T11:19:08;15.25;;;8.68;;
62929;SDS011;49036;42.782;23.108;2023-01-29T11:21:49;20.42;;;10.35;;
62929;SDS011;49036;42.782;23.108;2023-01-29T11:24:15;18.55;;;9.75;;
62929;SDS011;49036;42.782;23.108;2023-01-29T11:26:41;21.40;;;10.75;;
62929;SDS011;49036;42.782;23.108;2023-01-29T11:29:28;19.98;;;10.18;;
62929;SDS011;49036;42.782;23.108;2023-01-29T11:31:57;21.67;;;9.57;;
62929;SDS011;49036;42.782;23.108;2023-01-29T11:34:25;23.08;;;10.32;;
62929;SDS011;49036;42.782;23.108;2023-01-29T11:36:57;13.05;;;7.03;;
62929;SDS011;49036;42.782;23.108;2023-01-29T11:39:23;19.20;;;8.50;;
62929;SDS011;49036;42.782;23.108;2023-01-29T11:41:55;15.90;;;9.05;;
62929;SDS011;49036;42.782;23.108;2023-01-29T11:47:28;17.23;;;9.65;;
62929;SDS011;49036;42.782;23.108;2023-01-29T11:49:58;14.32;;;9.60;;
62929;SDS011;49036;42.782;23.108;2023-01-29T11:52:33;18.15;;;8.35;;
62929;SDS011;49036;42.782;23.108;2023-01-29T11:55:04;18.92;;;9.57;;
62929;SDS011;49036;42.782;23.108;2023-01-29T11:57:39;18.35;;;8.43;;
62929;SDS011;49036;42.782;23.108;2023-01-29T12:03:34;16.05;;;8.40;;
62929;SDS011;49036;42.782;23.108;2023-01-29T12:08:38;21.52;;;8.30;;
62929;SDS011;49036;42.782;23.108;2023-01-29T12:11:14;15.68;;;8.98;;
62929;SDS011;49036;42.782;23.108;2023-01-29T12:13:52;15.57;;;7.38;;
62929;SDS011;49036;42.782;23.108;2023-01-29T12:21:38;15.57;;;8.43;;
62929;SDS011;49036;42.782;23.108;2023-01-29T12:26:50;15.02;;;8.60;;
62929;SDS011;49036;42.782;23.108;2023-01-29T12:29:41;12.55;;;7.45;;
62929;SDS011;49036;42.782;23.108;2023-01-29T12:35:30;12.60;;;7.00;;
62929;SDS011;49036;42.782;23.108;2023-01-29T12:38:05;12.50;;;8.13;;
62929;SDS011;49036;42.782;23.108;2023-01-29T12:43:04;20.83;;;8.45;;
62929;SDS011;49036;42.782;23.108;2023-01-29T12:45:36;19.02;;;10.52;;
62929;SDS011;49036;42.782;23.108;2023-01-29T12:48:07;17.08;;;8.75;;
62929;SDS011;49036;42.782;23.108;2023-01-29T12:50:36;17.58;;;10.02;;
62929;SDS011;49036;42.782;23.108;2023-01-29T12:55:50;14.82;;;7.90;;
62929;SDS011;49036;42.782;23.108;2023-01-29T12:58:23;18.88;;;8.48;;
62929;SDS011;49036;42.782;23.108;2023-01-29T13:00:56;16.77;;;8.98;;
62929;SDS011;49036;42.782;23.108;2023-01-29T13:06:16;14.50;;;6.90;;
62929;SDS011;49036;42.782;23.108;2023-01-29T13:08:50;21.52;;;9.50;;
62929;SDS011;49036;42.782;23.108;2023-01-29T13:11:26;13.93;;;8.40;;
62929;SDS011;49036;42.782;23.108;2023-01-29T13:13:58;20.23;;;8.32;;
62929;SDS011;49036;42.782;23.108;2023-01-29T13:16:29;14.45;;;8.90;;
62929;SDS011;49036;42.782;23.108;2023-01-29T13:21:28;17.90;;;9.65;;
62929;SDS011;49036;42.782;23.108;2023-01-29T13:24:01;17.58;;;7.05;;
62929;SDS011;49036;42.782;23.108;2023-01-29T13:26:29;18.17;;;10.65;;
62929;SDS011;49036;42.782;23.108;2023-01-29T13:34:34;21.95;;;10.82;;
62929;SDS011;49036;42.782;23.108;2023-01-29T13:36:55;23.10;;;11.35;;
62929;SDS011;49036;42.782;23.108;2023-01-29T13:39:23;16.80;;;7.95;;
62929;SDS011;49036;42.782;23.108;2023-01-29T13:41:57;14.68;;;9.35;;
62929;SDS011;49036;42.782;23.108;2023-01-29T13:44:28;20.33;;;9.48;;
62929;SDS011;49036;42.782;23.108;2023-01-29T13:46:59;21.40;;;11.35;;
62929;SDS011;49036;42.782;23.108;2023-01-29T13:54:48;17.85;;;10.63;;
62929;SDS011;49036;42.782;23.108;2023-01-29T13:57:44;22.63;;;9.85;;
62929;SDS011;49036;42.782;23.108;2023-01-29T14:03:32;16.13;;;9.40;;
62929;SDS011;49036;42.782;23.108;2023-01-29T14:05:38;28.25;;;12.57;;
62929;SDS011;49036;42.782;23.108;2023-01-29T14:10:34;27.73;;;12.30;;
62929;SDS011;49036;42.782;23.108;2023-01-29T14:15:42;29.02;;;13.75;;
62929;SDS011;49036;42.782;23.108;2023-01-29T14:20:39;25.80;;;13.00;;
62929;SDS011;49036;42.782;23.108;2023-01-29T14:23:28;22.73;;;11.23;;
62929;SDS011;49036;42.782;23.108;2023-01-29T14:26:00;26.15;;;10.98;;
62929;SDS011;49036;42.782;23.108;2023-01-29T14:28:29;24.08;;;11.18;;
62929;SDS011;49036;42.782;23.108;2023-01-29T14:30:57;26.90;;;11.32;;
62929;SDS011;49036;42.782;23.108;2023-01-29T14:33:34;19.23;;;10.48;;
62929;SDS011;49036;42.782;23.108;2023-01-29T14:36:05;25.52;;;11.32;;
62929;SDS011;49036;42.782;23.108;2023-01-29T14:38:36;24.60;;;9.45;;
62929;SDS011;49036;42.782;23.108;2023-01-29T14:41:13;20.13;;;10.18;;
62929;SDS011;49036;42.782;23.108;2023-01-29T14:44:00;19.17;;;9.80;;
62929;SDS011;49036;42.782;23.108;2023-01-29T14:46:54;25.63;;;9.27;;
62929;SDS011;49036;42.782;23.108;2023-01-29T14:52:25;20.45;;;9.10;;
62929;SDS011;49036;42.782;23.108;2023-01-29T14:54:58;31.45;;;14.05;;
62929;SDS011;49036;42.782;23.108;2023-01-29T14:57:25;17.38;;;9.93;;
62929;SDS011;49036;42.782;23.108;2023-01-29T14:59:55;22.88;;;10.20;;
62929;SDS011;49036;42.782;23.108;2023-01-29T15:05:02;30.45;;;13.13;;
62929;SDS011;49036;42.782;23.108;2023-01-29T15:15:45;28.52;;;11.60;;
62929;SDS011;49036;42.782;23.108;2023-01-29T15:18:15;26.35;;;11.73;;
62929;SDS011;49036;42.782;23.108;2023-01-29T15:20:44;22.73;;;10.35;;
62929;SDS011;49036;42.782;23.108;2023-01-29T15:23:23;28.23;;;12.98;;
62929;SDS011;49036;42.782;23.108;2023-01-29T15:25:50;20.98;;;9.43;;
62929;SDS011;49036;42.782;23.108;2023-01-29T15:28:17;21.50;;;10.82;;
62929;SDS011;49036;42.782;23.108;2023-01-29T15:30:43;25.92;;;11.25;;
62929;SDS011;49036;42.782;23.108;2023-01-29T15:33:09;25.98;;;12.65;;
62929;SDS011;49036;42.782;23.108;2023-01-29T15:35:38;24.65;;;11.38;;
62929;SDS011;49036;42.782;23.108;2023-01-29T15:43:27;27.27;;;12.57;;
62929;SDS011;49036;42.782;23.108;2023-01-29T15:46:04;18.20;;;10.30;;
62929;SDS011;49036;42.782;23.108;2023-01-29T15:48:40;26.25;;;9.93;;
62929;SDS011;49036;42.782;23.108;2023-01-29T15:51:08;21.25;;;9.20;;
62929;SDS011;49036;42.782;23.108;2023-01-29T15:53:41;24.13;;;11.63;;
62929;SDS011;49036;42.782;23.108;2023-01-29T15:56:14;22.55;;;11.38;;
62929;SDS011;49036;42.782;23.108;2023-01-29T15:58:42;24.33;;;10.73;;
62929;SDS011;49036;42.782;23.108;2023-01-29T16:01:12;25.52;;;11.57;;
62929;SDS011;49036;42.782;23.108;2023-01-29T16:03:38;29.88;;;12.85;;
62929;SDS011;49036;42.782;23.108;2023-01-29T16:06:04;26.45;;;10.00;;
62929;SDS011;49036;42.782;23.108;2023-01-29T16:08:31;25.92;;;13.15;;
62929;SDS011;49036;42.782;23.108;2023-01-29T16:10:59;31.95;;;11.75;;
62929;SDS011;49036;42.782;23.108;2023-01-29T16:13:26;28.10;;;12.45;;
62929;SDS011;49036;42.782;23.108;2023-01-29T16:16:00;19.83;;;11.30;;
62929;SDS011;49036;42.782;23.108;2023-01-29T16:20:55;33.35;;;11.13;;
62929;SDS011;49036;42.782;23.108;2023-01-29T16:23:29;32.15;;;12.80;;
62929;SDS011;49036;42.782;23.108;2023-01-29T16:26:01;21.70;;;11.27;;
62929;SDS011;49036;42.782;23.108;2023-01-29T16:28:29;24.10;;;9.70;;
62929;SDS011;49036;42.782;23.108;2023-01-29T16:30:58;32.13;;;12.18;;
62929;SDS011;49036;42.782;23.108;2023-01-29T16:33:32;30.88;;;14.05;;
62929;SDS011;49036;42.782;23.108;2023-01-29T16:36:01;23.98;;;8.38;;
62929;SDS011;49036;42.782;23.108;2023-01-29T16:38:31;29.58;;;12.50;;
62929;SDS011;49036;42.782;23.108;2023-01-29T16:51:51;27.83;;;11.50;;
62929;SDS011;49036;42.782;23.108;2023-01-29T16:54:19;30.42;;;11.93;;
62929;SDS011;49036;42.782;23.108;2023-01-29T16:56:47;24.90;;;10.27;;
62929;SDS011;49036;42.782;23.108;2023-01-29T16:59:32;25.17;;;10.90;;
62929;SDS011;49036;42.782;23.108;2023-01-29T17:02:01;27.50;;;11.45;;
62929;SDS011;49036;42.782;23.108;2023-01-29T17:04:28;30.83;;;12.27;;
62929;SDS011;49036;42.782;23.108;2023-01-29T17:06:57;29.15;;;10.63;;
62929;SDS011;49036;42.782;23.108;2023-01-29T17:09:28;27.90;;;12.13;;
62929;SDS011;49036;42.782;23.108;2023-01-29T17:12:00;31.38;;;14.02;;
62929;SDS011;49036;42.782;23.108;2023-01-29T17:14:31;31.50;;;13.77;;
62929;SDS011;49036;42.782;23.108;2023-01-29T17:17:05;27.85;;;13.05;;
62929;SDS011;49036;42.782;23.108;2023-01-29T17:19:40;27.80;;;11.90;;
62929;SDS011;49036;42.782;23.108;2023-01-29T17:22:06;24.00;;;11.77;;
62929;SDS011;49036;42.782;23.108;2023-01-29T17:24:38;27.02;;;11.48;;
62929;SDS011;49036;42.782;23.108;2023-01-29T17:27:04;25.33;;;11.85;;
62929;SDS011;49036;42.782;23.108;2023-01-29T17:29:30;32.55;;;14.05;;
62929;SDS011;49036;42.782;23.108;2023-01-29T17:31:56;36.47;;;14.25;;
62929;SDS011;49036;42.782;23.108;2023-01-29T17:34:24;34.90;;;15.05;;
62929;SDS011;49036;42.782;23.108;2023-01-29T17:36:50;30.52;;;11.68;;
62929;SDS011;49036;42.782;23.108;2023-01-29T17:39:17;33.42;;;13.80;;
62929;SDS011;49036;42.782;23.108;2023-01-29T17:41:44;31.13;;;11.02;;
62929;SDS011;49036;42.782;23.108;2023-01-29T17:44:13;28.75;;;11.38;;
62929;SDS011;49036;42.782;23.108;2023-01-29T17:46:38;32.47;;;13.13;;
62929;SDS011;49036;42.782;23.108;2023-01-29T17:49:08;28.60;;;11.73;;
62929;SDS011;49036;42.782;23.108;2023-01-29T17:51:38;29.45;;;12.60;;
62929;SDS011;49036;42.782;23.108;2023-01-29T17:54:04;23.48;;;10.27;;